createdAt,value
2023-03-06T00:01:31.949Z,95827.59
2023-03-06T00:04:03.852Z,95827.84
2023-03-06T00:06:35.589Z,95816.78
2023-03-06T00:09:09.749Z,95819.56
2023-03-06T00:11:41.341Z,95821.72
2023-03-06T00:14:12.888Z,95822.16
2023-03-06T00:16:47.440Z,95811.03
2023-03-06T00:19:18.996Z,95808.75
2023-03-06T00:21:50.805Z,95806.75
2023-03-06T00:24:22.421Z,95809.06
2023-03-06T00:26:56.966Z,95796.41
2023-03-06T00:29:30.618Z,95795.34
2023-03-06T00:32:05.751Z,95789.47
2023-03-06T00:34:37.604Z,95784.56
2023-03-06T00:37:09.299Z,95788.84
2023-03-06T00:39:40.866Z,95787.66
2023-03-06T00:42:13.249Z,95787.41
2023-03-06T00:44:47.895Z,95778.13
2023-03-06T00:47:19.513Z,95782.25
2023-03-06T00:49:51.147Z,95775.09
2023-03-06T00:52:22.710Z,95777.16
2023-03-06T00:54:54.365Z,95774.19
2023-03-06T00:57:25.953Z,95767.81
2023-03-06T00:59:57.521Z,95771.34
2023-03-06T01:02:29.247Z,95769.59
2023-03-06T01:05:02.953Z,95757.44
2023-03-06T01:07:36.590Z,95751.34
2023-03-06T01:10:10.313Z,95750.78
2023-03-06T01:12:41.894Z,95755.25
2023-03-06T01:15:13.955Z,95746.53
2023-03-06T01:17:45.700Z,95732.84
2023-03-06T01:20:18.348Z,95743.38
2023-03-06T01:22:50.044Z,95728.13
2023-03-06T01:25:21.590Z,95723.56
2023-03-06T01:27:53.329Z,95725.31
2023-03-06T01:30:24.899Z,95714.88
2023-03-06T01:32:56.486Z,95701.81
2023-03-06T01:35:28.046Z,95697.78
2023-03-06T01:37:59.712Z,95692.03
2023-03-06T01:40:33.983Z,95689.25
2023-03-06T01:43:28.926Z,95684.34
2023-03-06T01:46:42.312Z,95678.97
2023-03-06T01:49:24.357Z,95682.59
2023-03-06T01:52:00.716Z,95669.97
2023-03-06T01:54:46.532Z,95670.66
2023-03-06T01:57:23.942Z,95669.41
2023-03-06T02:00:13.898Z,95672.44
2023-03-06T02:03:11.250Z,95665.69
2023-03-06T02:05:44.020Z,95668.31
2023-03-06T02:08:19.479Z,95662.50
2023-03-06T02:11:21.178Z,95660.53
2023-03-06T02:13:54.780Z,95647.19
2023-03-06T02:16:31.354Z,95651.94
2023-03-06T02:19:07.222Z,95653.31
2023-03-06T02:21:44.482Z,95643.19
2023-03-06T02:24:30.159Z,95652.91
2023-03-06T02:27:05.507Z,95642.91
2023-03-06T02:29:37.062Z,95634.47
2023-03-06T02:32:09.044Z,95633.41
2023-03-06T02:34:40.533Z,95626.75
2023-03-06T02:37:12.117Z,95624.47
2023-03-06T02:39:50.045Z,95618.78
2023-03-06T02:42:26.335Z,95622.94
2023-03-06T02:45:01.806Z,95616.25
2023-03-06T02:47:33.335Z,95622.22
2023-03-06T02:50:05.234Z,95621.78
2023-03-06T02:52:36.830Z,95612.16
2023-03-06T02:55:09.226Z,95610.88
2023-03-06T02:57:40.889Z,95601.66
2023-03-06T03:00:14.168Z,95602.63
2023-03-06T03:02:48.677Z,95601.38
2023-03-06T03:05:20.254Z,95591.16
2023-03-06T03:07:52.033Z,95602.13
2023-03-06T03:10:24.003Z,95603.50
2023-03-06T03:12:56.037Z,95605.56
2023-03-06T03:15:27.988Z,95597.50
2023-03-06T03:17:59.516Z,95603.50
2023-03-06T03:20:31.122Z,95598.94
2023-03-06T03:23:02.899Z,95598.91
2023-03-06T03:25:34.392Z,95589.66
2023-03-06T03:28:06.003Z,95601.72
2023-03-06T03:30:40.451Z,95600.44
2023-03-06T03:33:12.844Z,95594.88
2023-03-06T03:35:44.426Z,95596.72
2023-03-06T03:38:16.050Z,95594.75
2023-03-06T03:40:50.624Z,95602.63
2023-03-06T03:43:22.490Z,95595.91
2023-03-06T03:45:54.187Z,95603.28
2023-03-06T03:48:25.877Z,95598.72
2023-03-06T03:51:08.897Z,95597.94
2023-03-06T03:53:40.684Z,95590.09
2023-03-06T03:56:13.248Z,95588.69
2023-03-06T03:58:44.811Z,95593.41
2023-03-06T04:01:16.417Z,95593.66
2023-03-06T04:03:48.307Z,95586.59
2023-03-06T04:06:21.963Z,95589.53
2023-03-06T04:08:53.875Z,95585.00
2023-03-06T04:11:25.547Z,95580.22
2023-03-06T04:13:57.225Z,95585.63
2023-03-06T04:16:28.799Z,95587.28
2023-03-06T04:19:00.815Z,95582.94
2023-03-06T04:21:34.657Z,95581.94
2023-03-06T04:24:07.066Z,95573.91
2023-03-06T04:26:41.485Z,95578.00
2023-03-06T04:29:13.121Z,95569.50
2023-03-06T04:31:44.761Z,95572.81
2023-03-06T04:34:16.415Z,95570.56
2023-03-06T04:36:47.932Z,95575.38
2023-03-06T04:39:19.453Z,95570.03
2023-03-06T04:41:51.048Z,95576.13
2023-03-06T04:44:22.749Z,95574.69
2023-03-06T04:46:54.282Z,95566.00
2023-03-06T04:49:26.089Z,95557.31
2023-03-06T04:51:57.924Z,95565.47
2023-03-06T04:54:29.819Z,95560.19
2023-03-06T04:57:01.391Z,95550.03
2023-03-06T04:59:32.969Z,95549.81
2023-03-06T05:02:04.760Z,95553.38
2023-03-06T05:04:36.315Z,95552.75
2023-03-06T05:07:08.366Z,95551.56
2023-03-06T05:09:39.952Z,95548.09
2023-03-06T05:12:11.575Z,95552.03
2023-03-06T05:14:43.787Z,95551.94
2023-03-06T05:17:15.367Z,95561.72
2023-03-06T05:19:46.923Z,95558.94
2023-03-06T05:22:18.548Z,95555.84
2023-03-06T05:24:50.253Z,95565.47
2023-03-06T05:27:22.066Z,95554.91
2023-03-06T05:29:54.537Z,95557.41
2023-03-06T05:32:26.602Z,95545.44
2023-03-06T05:34:58.184Z,95545.78
2023-03-06T05:37:29.890Z,95546.75
2023-03-06T05:40:06.624Z,95559.91
2023-03-06T05:42:38.124Z,95548.28
2023-03-06T05:45:10.777Z,95558.94
2023-03-06T05:47:42.319Z,95551.09
2023-03-06T05:50:14.806Z,95551.31
2023-03-06T05:52:46.371Z,95553.22
2023-03-06T05:55:19.558Z,95556.88
2023-03-06T05:57:51.703Z,95553.06
2023-03-06T06:00:24.119Z,95562.25
2023-03-06T06:03:01.732Z,95572.63
2023-03-06T06:05:33.278Z,95563.72
2023-03-06T06:08:04.958Z,95569.72
2023-03-06T06:10:36.576Z,95577.09
2023-03-06T06:13:10.649Z,95576.31
2023-03-06T06:15:42.279Z,95581.16
2023-03-06T06:18:13.987Z,95576.34
2023-03-06T06:20:45.716Z,95568.97
2023-03-06T06:23:17.291Z,95567.00
2023-03-06T06:25:48.910Z,95571.56
2023-03-06T06:28:20.398Z,95580.16
2023-03-06T06:30:51.997Z,95582.22
2023-03-06T06:33:24.365Z,95580.25
2023-03-06T06:35:55.965Z,95581.66
2023-03-06T06:38:27.536Z,95584.59
2023-03-06T06:41:31.221Z,95577.16
2023-03-06T06:43:50.536Z,95584.25
2023-03-06T06:46:59.262Z,95584.00
2023-03-06T06:49:14.864Z,95579.78
2023-03-06T06:51:46.460Z,95575.41
2023-03-06T06:54:19.838Z,95585.31
2023-03-06T06:56:52.030Z,95583.72
2023-03-06T06:59:25.883Z,95586.09
2023-03-06T07:01:57.711Z,95597.25
2023-03-06T07:04:29.349Z,95599.09
2023-03-06T07:07:01.418Z,95600.88
2023-03-06T07:09:32.976Z,95591.28
2023-03-06T07:12:04.879Z,95599.41
2023-03-06T07:14:36.455Z,95609.53
2023-03-06T07:17:09.649Z,95610.84
2023-03-06T07:19:41.556Z,95611.66
2023-03-06T07:22:13.105Z,95608.63
2023-03-06T07:24:44.937Z,95611.69
2023-03-06T07:27:16.494Z,95606.16
2023-03-06T07:29:48.729Z,95606.66
2023-03-06T07:32:23.961Z,95613.25
2023-03-06T07:35:09.683Z,95605.69
2023-03-06T07:37:47.088Z,95601.97
2023-03-06T07:40:20.692Z,95599.28
2023-03-06T07:43:09.246Z,95602.59
2023-03-06T07:45:46.940Z,95600.84
2023-03-06T07:48:18.545Z,95600.13
2023-03-06T07:51:03.088Z,95604.53
2023-03-06T07:53:35.459Z,95593.91
2023-03-06T07:56:11.295Z,95596.78
2023-03-06T07:58:46.979Z,95606.59
2023-03-06T08:01:23.426Z,95606.78
2023-03-06T08:03:55.456Z,95613.19
2023-03-06T08:06:27.703Z,95618.50
2023-03-06T08:08:59.697Z,95631.06
2023-03-06T08:11:32.017Z,95626.88
2023-03-06T08:14:04.007Z,95628.78
2023-03-06T08:16:35.649Z,95619.06
2023-03-06T08:19:07.524Z,95635.47
2023-03-06T08:21:39.132Z,95640.31
2023-03-06T08:24:10.858Z,95639.50
2023-03-06T08:26:43.210Z,95639.75
2023-03-06T08:29:15.454Z,95645.19
2023-03-06T08:31:48.625Z,95646.66
2023-03-06T08:34:24.584Z,95646.59
2023-03-06T08:36:56.184Z,95648.13
2023-03-06T08:39:27.675Z,95650.28
2023-03-06T08:41:59.351Z,95644.63
2023-03-06T08:44:35.018Z,95646.41
2023-03-06T08:47:09.357Z,95646.84
2023-03-06T08:49:40.890Z,95652.94
2023-03-06T08:52:12.476Z,95646.84
2023-03-06T08:54:44.058Z,95654.47
2023-03-06T08:57:15.785Z,95654.09
2023-03-06T08:59:47.283Z,95657.59
2023-03-06T09:02:18.861Z,95660.63
2023-03-06T09:04:50.482Z,95653.59
2023-03-06T09:07:22.223Z,95658.38
2023-03-06T09:09:58.037Z,95660.19
2023-03-06T09:12:32.613Z,95664.25
2023-03-06T09:15:10.628Z,95666.03
2023-03-06T09:17:42.372Z,95658.69
2023-03-06T09:20:15.111Z,95652.09
2023-03-06T09:22:47.090Z,95651.00
2023-03-06T09:25:20.487Z,95654.69
2023-03-06T09:28:08.602Z,95666.03
2023-03-06T09:30:42.297Z,95656.63
2023-03-06T09:33:14.768Z,95656.16
2023-03-06T09:35:52.429Z,95657.41
2023-03-06T09:38:27.826Z,95663.25
2023-03-06T09:41:00.366Z,95657.13
2023-03-06T09:43:43.147Z,95654.63
2023-03-06T09:46:36.685Z,95659.44
2023-03-06T09:49:18.332Z,95668.31
2023-03-06T09:52:40.987Z,95665.53
2023-03-06T09:55:19.501Z,95661.13
2023-03-06T09:58:01.631Z,95664.53
2023-03-06T10:01:03.652Z,95664.00
2023-03-06T10:04:05.746Z,95658.16
2023-03-06T10:06:50.807Z,95663.00
2023-03-06T10:09:48.310Z,95660.41
2023-03-06T10:12:37.133Z,95653.38
2023-03-06T10:15:28.604Z,95656.41
2023-03-06T10:18:03.196Z,95656.72
2023-03-06T10:21:00.939Z,95658.97
2023-03-06T10:23:52.562Z,95668.78
2023-03-06T10:26:32.978Z,95644.66
2023-03-06T10:29:22.232Z,95653.53
2023-03-06T10:32:11.606Z,95658.72
2023-03-06T10:34:43.423Z,95663.44
2023-03-06T10:37:22.264Z,95654.00
2023-03-06T10:40:08.419Z,95650.50
2023-03-06T10:42:40.123Z,95658.22
2023-03-06T10:45:17.067Z,95654.94
2023-03-06T10:47:48.639Z,95654.63
2023-03-06T10:50:28.240Z,95648.19
2023-03-06T10:53:07.185Z,95651.47
2023-03-06T10:55:39.166Z,95652.28
2023-03-06T10:58:30.892Z,95653.31
2023-03-06T11:01:07.778Z,95654.34
2023-03-06T11:03:39.463Z,95644.97
2023-03-06T11:06:32.598Z,95648.75
2023-03-06T11:09:25.677Z,95648.44
2023-03-06T11:12:29.066Z,95637.25
2023-03-06T11:15:06.726Z,95648.19
2023-03-06T11:18:08.618Z,95648.16
2023-03-06T11:20:51.370Z,95648.75
2023-03-06T11:23:47.368Z,95645.63
2023-03-06T11:26:34.493Z,95648.56
2023-03-06T11:29:14.588Z,95633.00
2023-03-06T11:31:55.822Z,95640.09
2023-03-06T11:34:50.258Z,95647.22
2023-03-06T11:37:49.471Z,95640.41
2023-03-06T11:40:28.672Z,95629.72
2023-03-06T11:43:23.383Z,95632.16
2023-03-06T11:46:24.674Z,95624.66
2023-03-06T11:49:24.409Z,95617.75
2023-03-06T11:52:03.385Z,95623.34
2023-03-06T11:54:35.793Z,95623.09
2023-03-06T11:57:18.143Z,95611.41
2023-03-06T12:00:04.428Z,95615.53
2023-03-06T12:03:09.586Z,95607.59
2023-03-06T12:06:09.719Z,95607.34
2023-03-06T12:09:09.128Z,95593.72
2023-03-06T12:11:57.137Z,95601.88
2023-03-06T12:14:42.837Z,95598.13
2023-03-06T12:17:50.771Z,95594.69
2023-03-06T12:20:33.031Z,95587.19
2023-03-06T12:23:36.705Z,95586.09
2023-03-06T12:26:55.750Z,95591.31
2023-03-06T12:29:56.213Z,95592.09
2023-03-06T12:32:56.506Z,95580.44
2023-03-06T12:36:17.435Z,95588.81
2023-03-06T12:39:08.393Z,95573.50
2023-03-06T12:42:04.927Z,95561.13
2023-03-06T12:44:43.282Z,95566.59
2023-03-06T12:47:20.724Z,95567.63
2023-03-06T12:50:13.827Z,95564.66
2023-03-06T12:52:46.937Z,95573.63
2023-03-06T12:55:23.186Z,95565.75
2023-03-06T12:57:55.885Z,95555.88
2023-03-06T13:00:34.356Z,95553.38
2023-03-06T13:04:02.524Z,95563.00
2023-03-06T13:07:22.806Z,95558.84
2023-03-06T13:10:10.858Z,95548.97
2023-03-06T13:13:01.742Z,95548.84
2023-03-06T13:16:04.281Z,95544.78
2023-03-06T13:18:46.585Z,95553.94
2023-03-06T13:21:55.300Z,95555.59
2023-03-06T13:24:33.932Z,95553.31
2023-03-06T13:27:12.298Z,95548.97
2023-03-06T13:29:53.065Z,95550.00
2023-03-06T13:32:32.789Z,95548.63
2023-03-06T13:35:30.592Z,95545.09
2023-03-06T13:38:02.176Z,95542.91
2023-03-06T13:40:35.389Z,95546.63
2023-03-06T13:43:06.955Z,95546.97
2023-03-06T13:45:46.946Z,95544.44
2023-03-06T13:48:47.655Z,95550.59
2023-03-06T13:51:27.067Z,95545.38
2023-03-06T13:54:42.492Z,95543.34
2023-03-06T13:57:44.718Z,95542.56
2023-03-06T14:01:12.389Z,95543.66
2023-03-06T14:04:01.830Z,95547.69
2023-03-06T14:06:37.282Z,95547.94
2023-03-06T14:09:41.404Z,95541.66
2023-03-06T14:12:26.767Z,95536.53
2023-03-06T14:15:05.602Z,95540.38
2023-03-06T14:17:39.211Z,95533.28
2023-03-06T14:20:20.198Z,95528.88
2023-03-06T14:23:33.482Z,95528.25
2023-03-06T14:26:23.402Z,95530.19
2023-03-06T14:29:00.756Z,95524.81
2023-03-06T14:31:43.139Z,95530.84
2023-03-06T14:34:27.619Z,95528.16
2023-03-06T14:37:03.374Z,95525.88
2023-03-06T14:39:42.706Z,95522.06
2023-03-06T14:42:26.452Z,95530.78
2023-03-06T14:45:05.536Z,95521.97
2023-03-06T14:47:37.480Z,95522.34
2023-03-06T14:50:25.657Z,95513.66
2023-03-06T14:53:04.251Z,95519.38
2023-03-06T14:55:36.342Z,95513.84
2023-03-06T14:58:16.134Z,95524.47
2023-03-06T15:00:57.016Z,95513.16
2023-03-06T15:03:45.220Z,95512.44
2023-03-06T15:06:24.388Z,95526.56
2023-03-06T15:09:31.421Z,95514.47
2023-03-06T15:12:33.473Z,95523.59
2023-03-06T15:15:15.956Z,95526.13
2023-03-06T15:17:48.493Z,95527.69
2023-03-06T15:20:53.144Z,95525.25
2023-03-06T15:23:36.647Z,95524.09
2023-03-06T15:26:29.157Z,95514.69
2023-03-06T15:29:16.760Z,95516.28
2023-03-06T15:31:48.654Z,95523.41
2023-03-06T15:34:23.796Z,95515.25
2023-03-06T15:36:58.688Z,95511.19
2023-03-06T15:39:40.408Z,95513.19
2023-03-06T15:42:26.663Z,95514.00
2023-03-06T15:45:03.426Z,95511.78
2023-03-06T15:47:35.184Z,95518.59
2023-03-06T15:50:22.158Z,95507.97
2023-03-06T15:52:53.994Z,95514.81
2023-03-06T15:55:26.281Z,95501.81
2023-03-06T15:58:00.940Z,95507.91
2023-03-06T16:00:40.082Z,95509.00
2023-03-06T16:03:12.465Z,95508.00
2023-03-06T16:05:44.250Z,95513.88
2023-03-06T16:08:16.246Z,95511.22
2023-03-06T16:10:48.289Z,95513.97
2023-03-06T16:13:28.633Z,95509.88
2023-03-06T16:16:00.210Z,95506.56
2023-03-06T16:18:31.869Z,95510.69
2023-03-06T16:21:03.827Z,95502.91
2023-03-06T16:23:38.842Z,95503.44
2023-03-06T16:26:29.293Z,95491.53
2023-03-06T16:29:01.412Z,95493.81
2023-03-06T16:31:33.244Z,95497.88
2023-03-06T16:34:04.791Z,95497.50
2023-03-06T16:36:36.779Z,95505.88
2023-03-06T16:39:21.282Z,95511.22
2023-03-06T16:41:53.020Z,95494.56
2023-03-06T16:44:24.621Z,95500.13
2023-03-06T16:46:56.199Z,95501.38
2023-03-06T16:49:27.894Z,95506.97
2023-03-06T16:52:00.402Z,95500.38
2023-03-06T16:54:31.995Z,95503.41
2023-03-06T16:57:03.646Z,95511.53
2023-03-06T16:59:35.415Z,95510.53
2023-03-06T17:02:07.044Z,95513.03
2023-03-06T17:04:39.387Z,95515.03
2023-03-06T17:07:10.954Z,95507.22
2023-03-06T17:09:43.322Z,95506.72
2023-03-06T17:12:15.004Z,95514.31
2023-03-06T17:14:46.788Z,95516.31
2023-03-06T17:17:18.561Z,95514.56
2023-03-06T17:19:52.371Z,95523.41
2023-03-06T17:22:26.632Z,95520.66
2023-03-06T17:24:58.228Z,95521.09
2023-03-06T17:27:30.244Z,95516.59
2023-03-06T17:30:02.675Z,95524.72
2023-03-06T17:32:34.394Z,95534.25
2023-03-06T17:35:08.497Z,95523.63
2023-03-06T17:37:40.189Z,95528.75
2023-03-06T17:40:12.406Z,95535.84
2023-03-06T17:42:44.042Z,95533.81
2023-03-06T17:45:15.623Z,95529.50
2023-03-06T17:47:49.042Z,95540.13
2023-03-06T17:50:21.047Z,95543.41
2023-03-06T17:52:52.633Z,95531.75
2023-03-06T17:55:24.266Z,95542.16
2023-03-06T17:57:55.823Z,95546.47
2023-03-06T18:00:29.660Z,95551.03
2023-03-06T18:03:01.275Z,95547.97
2023-03-06T18:05:32.971Z,95551.50
2023-03-06T18:08:05.718Z,95557.63
2023-03-06T18:10:41.888Z,95554.06
2023-03-06T18:13:14.188Z,95555.09
2023-03-06T18:15:45.992Z,95554.06
2023-03-06T18:18:17.570Z,95549.25
2023-03-06T18:20:49.636Z,95555.56
2023-03-06T18:23:21.756Z,95554.56
2023-03-06T18:25:53.363Z,95557.34
2023-03-06T18:28:27.310Z,95559.63
2023-03-06T18:30:58.905Z,95567.25
2023-03-06T18:33:30.403Z,95558.88
2023-03-06T18:36:03.673Z,95570.28
2023-03-06T18:38:35.426Z,95567.25
2023-03-06T18:41:10.607Z,95569.53
2023-03-06T18:43:42.325Z,95574.34
2023-03-06T18:46:14.012Z,95567.22
2023-03-06T18:48:45.739Z,95574.28
2023-03-06T18:51:18.026Z,95572.78
2023-03-06T18:53:49.797Z,95586.50
2023-03-06T18:56:22.012Z,95589.25
2023-03-06T18:58:54.708Z,95578.41
2023-03-06T19:01:27.226Z,95594.59
2023-03-06T19:04:01.707Z,95588.72
2023-03-06T19:06:33.341Z,95584.19
2023-03-06T19:09:05.655Z,95590.50
2023-03-06T19:11:37.478Z,95597.56
2023-03-06T19:14:09.220Z,95592.56
2023-03-06T19:16:41.647Z,95596.03
2023-03-06T19:19:13.304Z,95592.56
2023-03-06T19:21:45.137Z,95601.69
2023-03-06T19:24:16.677Z,95599.13
2023-03-06T19:26:48.171Z,95596.31
2023-03-06T19:29:19.749Z,95603.97
2023-03-06T19:31:52.199Z,95604.22
2023-03-06T19:34:23.838Z,95603.72
2023-03-06T19:36:55.444Z,95601.94
2023-03-06T19:39:27.035Z,95604.69
2023-03-06T19:41:58.577Z,95601.69
2023-03-06T19:44:30.290Z,95605.72
2023-03-06T19:47:01.854Z,95602.94
2023-03-06T19:49:33.955Z,95600.13
2023-03-06T19:52:07.448Z,95603.72
2023-03-06T19:54:39.239Z,95594.09
2023-03-06T19:57:10.824Z,95594.84
2023-03-06T19:59:42.538Z,95593.56
2023-03-06T20:02:16.052Z,95597.59
2023-03-06T20:04:47.633Z,95596.00
2023-03-06T20:07:19.357Z,95599.69
2023-03-06T20:09:52.327Z,95593.34
2023-03-06T20:12:23.829Z,95599.84
2023-03-06T20:14:55.373Z,95594.81
2023-03-06T20:17:29.564Z,95597.56
2023-03-06T20:20:01.797Z,95592.56
2023-03-06T20:22:33.548Z,95603.19
2023-03-06T20:25:06.140Z,95597.91
2023-03-06T20:27:37.821Z,95601.19
2023-03-06T20:30:10.261Z,95596.75
2023-03-06T20:32:41.841Z,95598.44
2023-03-06T20:35:13.998Z,95604.44
2023-03-06T20:37:48.712Z,95595.78
2023-03-06T20:40:22.786Z,95594.00
2023-03-06T20:42:54.380Z,95598.56
2023-03-06T20:45:26.050Z,95597.56
2023-03-06T20:47:57.705Z,95594.22
2023-03-06T20:50:29.335Z,95587.19
2023-03-06T20:53:01.620Z,95591.84
2023-03-06T20:55:37.586Z,95599.47
2023-03-06T20:58:09.160Z,95598.03
2023-03-06T21:00:41.351Z,95596.59
2023-03-06T21:03:12.948Z,95600.06
2023-03-06T21:05:47.814Z,95592.03
2023-03-06T21:08:19.433Z,95594.97
2023-03-06T21:10:51.148Z,95589.91
2023-03-06T21:13:22.725Z,95583.88
2023-03-06T21:15:56.603Z,95575.69
2023-03-06T21:18:28.162Z,95580.34
2023-03-06T21:21:04.250Z,95583.94
2023-03-06T21:23:42.892Z,95586.88
2023-03-06T21:26:24.904Z,95579.22
2023-03-06T21:28:59.021Z,95576.06
2023-03-06T21:31:31.781Z,95575.75
2023-03-06T21:34:05.168Z,95576.75
2023-03-06T21:36:37.231Z,95566.63
2023-03-06T21:39:09.285Z,95576.75
2023-03-06T21:41:41.176Z,95581.09
2023-03-06T21:44:18.231Z,95570.88
2023-03-06T21:46:57.450Z,95567.09
2023-03-06T21:49:30.153Z,95563.72
2023-03-06T21:52:01.658Z,95561.72
2023-03-06T21:54:33.261Z,95553.50
2023-03-06T21:57:05.066Z,95555.25
2023-03-06T21:59:37.710Z,95559.28
2023-03-06T22:02:10.941Z,95555.69
2023-03-06T22:04:42.896Z,95559.00
2023-03-06T22:07:14.459Z,95552.72
2023-03-06T22:09:46.594Z,95543.56
2023-03-06T22:12:21.722Z,95549.50
2023-03-06T22:14:53.896Z,95549.94
2023-03-06T22:17:25.638Z,95550.44
2023-03-06T22:19:57.799Z,95554.44
2023-03-06T22:22:30.707Z,95547.81
2023-03-06T22:25:02.799Z,95549.19
2023-03-06T22:27:34.326Z,95541.38
2023-03-06T22:30:08.468Z,95545.94
2023-03-06T22:32:40.081Z,95537.16
2023-03-06T22:35:11.694Z,95538.94
2023-03-06T22:37:45.386Z,95542.63
2023-03-06T22:40:17.106Z,95535.97
2023-03-06T22:42:48.666Z,95536.41
2023-03-06T22:45:20.244Z,95539.38
2023-03-06T22:47:55.139Z,95529.44
2023-03-06T22:50:28.797Z,95534.41
2023-03-06T22:53:00.287Z,95534.19
2023-03-06T22:55:35.110Z,95534.94
2023-03-06T22:58:06.690Z,95530.44
2023-03-06T23:00:39.327Z,95535.09
2023-03-06T23:03:10.844Z,95529.66
2023-03-06T23:05:43.042Z,95523.31
2023-03-06T23:08:14.772Z,95516.56
2023-03-06T23:10:46.276Z,95520.47
2023-03-06T23:13:17.820Z,95524.59
2023-03-06T23:15:49.429Z,95524.28
2023-03-06T23:18:21.082Z,95516.13
2023-03-06T23:20:52.714Z,95523.09
2023-03-06T23:23:25.172Z,95520.09
2023-03-06T23:26:00.431Z,95521.22
2023-03-06T23:28:32.808Z,95532.66
2023-03-06T23:31:31.226Z,95541.28
2023-03-06T23:34:03.814Z,95526.53
2023-03-06T23:36:38.431Z,95528.34
2023-03-06T23:39:12.569Z,95528.09
2023-03-06T23:41:44.160Z,95532.38
2023-03-06T23:44:15.759Z,95531.59
2023-03-06T23:46:47.330Z,95528.91
2023-03-06T23:49:21.973Z,95539.25
2023-03-06T23:51:56.686Z,95527.56
2023-03-06T23:54:28.252Z,95523.59
2023-03-06T23:56:59.994Z,95527.00
2023-03-06T23:59:31.783Z,95516.78
